Cansado, Mauritania
Current Conditions -  °F | °C
As of 3:00 PM on Tuesday 21 Oct 2014 (Local Time) from GQPP Reporting Station
Clear Clear  
Wind Chill: 79°   Ceiling: Unl
Heat Index: 81°   Visibility: 5mi
Dew Point: 66°   Wind: 18mph
Humidity: 65%   Direction: 320°NW
Pressure: 29.91"   Gusts: NA
Location:  20.85°N, 17.03°W
Report Text: GQPP 211500Z 32016KT 8000 NSC 26/19 Q1013 NOSIG
Loading
Personal Weather Stations






























Interactive Weather Map
Tropical Storm Tracking
New forecast layout! Learn more

10-Day Weather Forecast

Advertisements
Track Severe Weather on mobile